Daniel Field
KDNL : now visible

Aeroporto :











RITROVATECI SU...

 
LOGIN :

Iscrizione | Disclaimer

   EN    FR    IT 

 









Sommario :    VFR   VFR Marginale   IFR   IFR Intensivo   IFR Molto Intensivo
Visibilità : 
Base nubi : 
>= 8 km
>= 3000ft
5 / 8 km
1000 / 3000 ft
1500m / 5 km
500 / 1000 ft
800 / 1500m
200 / 500 ft
< 800m
< 200 ft
Simboli :   Temporali  Nebbia  Neve Forte  Precipitazioni Forti  Vento > 20 kt






- Altitudine del aeroporto : 423 ft


KDNL - Daniel Field

ULTIMO METAR :
  • 271953Z AUTO 30004KT 10SM CLR 23/01 A3006 RMK AO2 SLP174 T02330011

METARs OBSOLETI :
  • 271853Z AUTO VRB03KT 10SM CLR 23/02 A3006 RMK AO2 SLP176 T02330017
  • 271753Z AUTO 33008KT 10SM CLR 23/M01 A3007 RMK AO2 SLP181 T02331006 10233 20150 58020

TAF KDNL
Valido dal 27 a 18 ore il 28 a 18 ore UTC


271736Z 2718/2818 31008KT P6SM SCT250
FM280000 VRB03KT P6SM BKN250
FM280600 VRB03KT P6SM OVC080
FM281500 35005KT P6SM BKN050
FIR KZTL / America del Nord



MetMap, La meteo Aeronautica in un colpo d'occhio ! - Copyright ORBIFLY Dicembre 2007 - Disclaimer

ORBIFLY MET'MAP TEAM :

Programmazione e sviluppo : Alexandra Zaïnal
Concezione : Baudouin d'Aumeries
Aiuto per la programmazione : Marc-Olivier Méhu
Supporto tecnico e logistico : Manuel Goepfert
Aiuto per la traduzione : Arnaldo La Scala

Contatto : metmap@orbifly.com




FONTI E CREDITI :

   NOAA       Earth
Advisory